Nurata, Uzbekistan
Current Conditions -  °F | °C
As of 1:00 AM on Tuesday 25 Nov 2014 (Local Time) from UTSA Reporting Station
Overcast Overcast  
Wind Chill: 38°   Ceiling: 4800
Heat Index: 41°   Visibility: 4mi
Dew Point: 37°   Wind: 5mph
Humidity: 87%   Direction: 280°W
Pressure: 30.3"   Gusts: NA
Location:  40.56°N, 65.68°E
Report Text: UTSA 242000Z 28004KT 7000 OVC048 05/03 Q1026 R25/CLRD70 NOSIG
Loading
Personal Weather Stations






























Interactive Weather Map New forecast layout! Learn more

10-Day Weather Forecast

Advertisements
Track Severe Weather on mobile